Latest Weather Observations for Lake Macquarie - Cooranbong

IDN60801

Issued at 4:05 pm EST Monday 28 July 2014 (issued every 30 minutes, with the page automatically refreshed every 10 minutes)

About weather observations | Map of weather stations | Latest weather observations for NSW | Other Formats
Station Details ID: 061412 Name: LAKE MACQUARIE AWS Lat: -33.09 Lon: 151.46 Height: 6.0 m
Data from the previous 72 hours. | See also: Recent months at Lake Macquarie - Cooranbong
Date/Time
EST
Temp
°C
App
Temp
°C
Dew
Point
Rel
Hum
%
Delta-T
°C
Wind Press
QNH
hPa
Press
MSL
hPa
Rain
since 9 am
mm
Dir
 
Spd
km/h
Gust
km/h
Spd
kts
Gust
kts
28/04:00pm 18.2 17.3 6.1 45 5.9 WNW 0 0 0 0 1018.5 1018.5 0.0
28/03:30pm 19.0 15.5 1.5 31 7.9 WNW 9 15 5 8 1018.4 - 0.0
28/03:00pm 20.0 16.3 2.4 31 8.1 WNW 11 20 6 11 1018.3 1018.3 0.0
28/02:30pm 20.1 17.5 4.2 35 7.6 NNW 7 13 4 7 1018.5 - 0.0
28/02:00pm 19.6 16.4 2.9 33 7.8 WNW 9 17 5 9 1018.7 1018.7 0.0
28/01:30pm 19.3 16.3 4.3 37 7.2 NW 9 17 5 9 1018.9 - 0.0
28/01:00pm 19.3 16.7 6.1 42 6.5 NNW 9 15 5 8 1019.5 1019.5 0.0
28/12:30pm 18.1 14.8 4.7 41 6.4 NNW 11 20 6 11 1020.0 - 0.0
28/12:00pm 18.0 15.2 5.2 43 6.2 NW 9 15 5 8 1020.5 1020.5 0.0
28/11:30am 17.1 14.2 4.8 44 5.8 NNW 9 15 5 8 1020.6 - 0.0
28/11:00am 16.4 13.5 4.8 46 5.5 NW 9 17 5 9 1021.4 1021.4 0.0
28/10:30am 15.8 13.1 5.7 51 4.8 NNW 9 19 5 10 1021.7 - 0.0
28/10:00am 15.4 13.1 5.6 52 4.7 NW 7 11 4 6 1022.2 1022.2 0.0
28/09:30am 14.0 11.7 5.9 58 3.8 NW 7 13 4 7 1022.2 - 0.0
28/09:00am 11.8 10.3 8.5 80 1.6 N 6 9 3 5 1022.1 1022.1 0.0
28/08:30am 8.6 8.3 8.5 99 0.0 CALM 0 0 0 0 1022.5 - 0.0
28/08:00am 6.1 5.1 5.8 98 0.1 CALM 0 0 0 0 1022.3 1022.3 0.0
28/07:30am 4.6 3.3 4.3 98 0.1 CALM 0 4 0 2 1022.1 - 0.0
28/07:00am 3.9 1.7 3.5 97 0.2 NNE 4 6 2 3 1021.8 1021.8 0.0
28/06:30am 3.7 2.3 3.3 97 0.2 CALM 0 0 0 0 1021.8 - 0.0
28/06:00am 3.6 2.1 3.2 97 0.2 CALM 0 0 0 0 1021.5 1021.5 0.0
28/05:30am 3.4 1.9 3.0 97 0.2 CALM 0 0 0 0 1021.5 - 0.0
28/05:00am 3.3 1.8 2.9 97 0.2 CALM 0 0 0 0 1021.8 1021.8 0.0
28/04:30am 3.5 2.0 3.1 97 0.2 CALM 0 0 0 0 1021.6 - 0.0
28/04:00am 3.1 1.5 2.7 97 0.2 ENE 0 0 0 0 1021.5 1021.5 0.0
28/03:30am 3.8 2.0 3.4 97 0.2 N 2 4 1 2 1021.6 - 0.0
28/03:00am 3.7 2.3 3.3 97 0.2 CALM 0 0 0 0 1021.9 1021.9 0.0
28/02:30am 3.7 2.3 3.3 97 0.2 CALM 0 0 0 0 1021.5 - 0.0
28/02:00am 3.8 2.3 3.2 96 0.2 CALM 0 0 0 0 1021.4 1021.4 0.0
28/01:30am 4.1 2.7 3.5 96 0.2 CALM 0 0 0 0 1021.7 - 0.0
28/01:00am 4.2 2.8 3.6 96 0.2 CALM 0 4 0 2 1021.2 1021.2 0.0
28/12:30am 4.4 3.0 3.8 96 0.2 CALM 0 0 0 0 1021.3 - 0.0
28/12:00am 4.8 3.5 4.2 96 0.3 N 0 4 0 2 1021.9 1021.9 0.0
 
Date/Time
EST
Temp
°C
App
Temp
°C
Dew
Point
Rel
Hum
%
Delta-T
°C
Wind Press
QNH
hPa
Press
MSL
hPa
Rain
since 9 am
mm
Dir
 
Spd
km/h
Gust
km/h
Spd
kts
Gust
kts
27/11:30pm 5.0 3.8 4.4 96 0.3 CALM 0 0 0 0 1022.4 - 0.0
27/11:00pm 5.1 3.9 4.4 95 0.3 CALM 0 0 0 0 1022.7 1022.7 0.0
27/10:30pm 5.8 4.7 5.1 95 0.3 CALM 0 0 0 0 1022.9 - 0.0
27/10:00pm 6.2 5.2 5.5 95 0.3 CALM 0 0 0 0 1023.2 1023.2 0.0
27/09:30pm 6.4 5.4 5.7 95 0.3 N 0 0 0 0 1023.2 - 0.0
27/09:00pm 7.0 6.1 6.1 94 0.4 CALM 0 0 0 0 1023.6 1023.6 0.0
27/08:30pm 7.6 6.8 6.7 94 0.4 CALM 0 0 0 0 1023.7 - 0.0
27/08:00pm 7.9 7.1 6.7 92 0.5 CALM 0 0 0 0 1023.5 1023.5 0.0
27/07:30pm 8.4 7.7 7.0 91 0.7 CALM 0 0 0 0 1023.5 - 0.0
27/07:00pm 9.2 8.6 7.3 88 0.9 N 0 0 0 0 1023.2 1023.2 0.0
27/06:30pm 10.0 9.5 7.8 86 1.1 CALM 0 0 0 0 1023.2 - 0.0
27/06:00pm 11.0 10.6 8.1 82 1.4 CALM 0 0 0 0 1022.7 1022.7 0.0
27/05:30pm 13.0 12.6 8.1 72 2.4 CALM 0 0 0 0 1022.3 - 0.0
27/05:00pm 15.1 14.3 6.4 56 4.2 CALM 0 0 0 0 1021.9 1021.9 0.0
27/04:30pm 18.0 17.2 6.5 47 5.7 CALM 0 0 0 0 1021.7 - 0.0
27/04:00pm 19.1 17.1 4.5 38 7.0 SW 4 6 2 3 1021.7 1021.7 0.0
27/03:30pm 19.5 17.4 4.0 36 7.4 SW 4 7 2 4 1021.9 - 0.0
27/03:00pm 19.6 17.1 3.7 35 7.5 SW 6 11 3 6 1021.8 1021.8 0.0
27/02:30pm 19.5 17.0 4.8 38 7.1 WSW 7 15 4 8 1022.0 - 0.0
27/02:00pm 19.2 16.3 4.9 39 6.9 WSW 9 19 5 10 1022.1 1022.1 0.0
27/01:30pm 19.2 17.2 4.6 38 7.0 WSW 4 9 2 5 1022.2 - 0.0
27/01:00pm 18.5 16.0 5.0 41 6.5 SW 7 13 4 7 1022.5 1022.5 0.0
27/12:30pm 18.3 15.9 5.2 42 6.3 WSW 7 13 4 7 1023.0 - 0.0
27/12:00pm 17.8 15.4 5.1 43 6.1 WSW 7 17 4 9 1023.5 1023.5 0.0
27/11:30am 17.4 14.9 5.0 44 5.9 SW 7 13 4 7 1024.1 - 0.0
27/11:00am 16.9 14.2 5.8 48 5.3 WSW 9 15 5 8 1024.6 1024.6 0.0
27/10:30am 16.9 14.9 6.4 50 5.1 SW 6 13 3 7 1025.1 - 0.0
27/10:00am 15.8 13.8 7.1 56 4.3 WSW 7 13 4 7 1024.9 1024.9 0.0
27/09:30am 14.4 12.5 6.5 59 3.8 SW 6 13 3 7 1024.7 - 0.0
27/09:00am 11.8 12.3 11.6 99 0.1 CALM 0 0 0 0 1024.5 1024.5 5.6
27/08:30am 9.9 9.9 9.8 99 0.1 CALM 0 0 0 0 1024.4 - 5.6
27/08:00am 6.0 5.0 5.7 98 0.1 CALM 0 0 0 0 1024.4 1024.4 5.6
27/07:30am 4.3 3.0 3.9 97 0.2 CALM 0 0 0 0 1024.3 - 5.6
27/07:00am 4.1 2.7 3.7 97 0.2 CALM 0 0 0 0 1024.3 1024.3 5.6
27/06:30am 4.1 2.7 3.7 97 0.2 CALM 0 0 0 0 1023.9 - 5.6
27/06:00am 4.4 3.1 4.0 97 0.2 CALM 0 0 0 0 1023.5 1023.5 5.6
27/05:30am 4.6 3.3 4.2 97 0.2 CALM 0 0 0 0 1023.3 - 5.6
27/05:00am 4.8 3.6 4.4 97 0.2 CALM 0 0 0 0 1023.0 1023.0 5.6
27/04:30am 5.1 3.9 4.7 97 0.2 CALM 0 0 0 0 1023.0 - 5.4
27/04:00am 5.4 4.3 5.0 97 0.2 CALM 0 0 0 0 1023.1 1023.1 5.4
27/03:30am 5.2 4.0 4.8 97 0.2 CALM 0 0 0 0 1023.1 - 5.4
27/03:00am 5.8 4.8 5.4 97 0.2 CALM 0 0 0 0 1023.2 1023.2 5.4
27/02:30am 5.5 4.4 5.1 97 0.2 CALM 0 0 0 0 1023.3 - 5.4
27/02:00am 5.5 4.4 5.1 97 0.2 CALM 0 4 0 2 1023.2 1023.2 5.4
27/01:30am 5.7 4.6 5.3 97 0.2 CALM 0 0 0 0 1023.2 - 5.4
27/01:00am 5.9 4.9 5.5 97 0.2 CALM 0 0 0 0 1023.2 1023.2 5.4
27/12:30am 5.8 4.7 5.2 96 0.3 CALM 0 6 0 3 1023.3 - 5.4
27/12:00am 6.0 4.6 5.4 96 0.3 E 2 4 1 2 1023.5 1023.5 5.4
 
Date/Time
EST
Temp
°C
App
Temp
°C
Dew
Point
Rel
Hum
%
Delta-T
°C
Wind Press
QNH
hPa
Press
MSL
hPa
Rain
since 9 am
mm
Dir
 
Spd
km/h
Gust
km/h
Spd
kts
Gust
kts
26/11:30pm 6.2 5.2 5.6 96 0.3 CALM 0 0 0 0 1023.6 - 5.4
26/11:00pm 6.8 5.9 6.2 96 0.3 CALM 0 0 0 0 1023.6 1023.6 5.4
26/10:30pm 7.0 6.2 6.4 96 0.3 CALM 0 0 0 0 1023.7 - 5.4
26/10:00pm 7.3 6.5 6.6 95 0.3 CALM 0 0 0 0 1023.6 1023.6 5.4
26/09:30pm 7.8 7.1 7.1 95 0.3 CALM 0 0 0 0 1023.7 - 5.4
26/09:00pm 8.1 7.5 7.3 95 0.4 CALM 0 0 0 0 1023.6 1023.6 5.4
26/08:30pm 8.8 8.3 8.0 95 0.4 CALM 0 0 0 0 1023.6 - 5.4
26/08:00pm 9.0 8.6 8.1 94 0.4 CALM 0 0 0 0 1023.4 1023.4 5.4
26/07:30pm 9.5 8.8 8.6 94 0.4 N 2 4 1 2 1023.1 - 5.4
26/07:00pm 10.3 9.0 9.1 92 0.6 N 6 6 3 3 1022.9 1022.9 5.4
26/06:30pm 12.2 12.2 11.1 93 0.6 NNW 2 4 1 2 1022.7 - 5.4
26/06:00pm 12.3 11.5 10.9 91 0.7 N 6 7 3 4 1022.1 1022.1 5.4
26/05:30pm 14.0 13.6 11.2 83 1.5 NW 4 6 2 3 1021.8 - 5.4
26/05:00pm 15.1 15.0 10.7 75 2.3 NNW 2 7 1 4 1021.8 1021.8 5.4
26/04:30pm 16.9 16.8 10.7 67 3.3 NW 2 4 1 2 1021.8 - 5.4
26/04:00pm 17.9 17.3 10.3 61 4.0 W 4 9 2 5 1021.4 1021.4 5.4
26/03:30pm 17.9 17.0 10.8 63 3.8 NNW 6 11 3 6 1021.2 - 5.4
26/03:00pm 17.0 15.8 10.4 65 3.5 NNW 7 15 4 8 1021.4 1021.4 5.4
26/02:30pm 17.3 15.6 10.0 62 3.9 NNW 9 19 5 10 1021.2 - 5.4
26/02:00pm 16.3 15.6 11.5 73 2.6 N 6 11 3 6 1021.5 1021.5 5.4
26/01:30pm 15.9 15.9 12.5 80 1.9 N 4 7 2 4 1021.4 - 5.4
26/01:00pm 16.4 16.1 12.8 79 2.0 NNW 6 11 3 6 1021.6 1021.6 5.4
26/12:30pm 14.6 15.4 13.8 95 0.4 E 2 4 1 2 1022.3 - 5.4
26/12:00pm 14.1 14.8 13.3 95 0.4 SSE 2 6 1 3 1023.5 1023.5 4.8
26/11:30am 14.0 15.1 13.4 96 0.3 CALM 0 7 0 4 1024.3 - 4.4
26/11:00am 13.8 14.4 13.2 96 0.3 SSW 2 6 1 3 1024.8 1024.8 2.4
26/10:30am 14.0 15.1 13.5 97 0.3 CALM 0 0 0 0 1024.7 - 0.8
26/10:00am 13.8 14.8 13.3 97 0.3 CALM 0 0 0 0 1024.6 1024.6 0.6
26/09:30am 13.3 13.8 12.8 97 0.3 SSW 2 6 1 3 1024.2 - 0.4
26/09:00am 13.2 13.3 12.7 97 0.3 WSW 4 6 2 3 1024.6 1024.6 5.0
26/08:30am 13.2 13.7 12.7 97 0.3 N 2 4 1 2 1024.6 - 4.6
26/08:00am 13.2 13.3 12.6 96 0.3 SW 4 6 2 3 1024.1 1024.1 4.6
26/07:30am 13.1 13.5 12.5 96 0.3 SW 2 2 1 1 1023.8 - 4.6
26/07:00am 13.1 13.4 12.3 95 0.4 S 2 7 1 4 1023.9 1023.9 4.4
26/06:30am 13.1 13.8 12.2 94 0.5 CALM 0 4 0 2 1024.0 - 3.8
26/06:00am 13.2 13.9 12.1 93 0.6 CALM 0 0 0 0 1024.1 1024.1 2.8
26/05:30am 13.5 14.2 12.1 91 0.8 CALM 0 0 0 0 1024.0 - 1.2
26/05:00am 13.9 14.5 11.8 87 1.1 CALM 0 0 0 0 1023.6 1023.6 0.2
26/04:30am 14.6 14.6 11.2 80 1.8 NE 2 6 1 3 1022.9 - 0.0
26/04:00am 16.0 15.4 10.5 70 2.9 N 4 9 2 5 1022.7 1022.7 0.0
26/03:30am 16.4 15.4 10.9 70 2.9 NW 7 15 4 8 1022.6 - 0.0
26/03:00am 16.6 15.1 10.5 67 3.2 NNW 9 20 5 11 1022.4 1022.4 0.0
26/02:30am 16.2 15.9 10.1 67 3.2 NE 2 6 1 3 1022.0 - 0.0
26/02:00am 17.1 15.4 10.0 63 3.7 N 9 20 5 11 1022.5 1022.5 0.0
26/01:30am 17.2 15.5 9.9 62 3.8 NNW 9 15 5 8 1022.4 - 0.0
26/01:00am 15.9 14.7 10.4 70 2.9 NNW 7 15 4 8 1022.7 1022.7 0.0
26/12:30am 15.3 14.7 10.5 73 2.5 NNW 4 7 2 4 1023.0 - 0.0
26/12:00am 15.4 14.8 10.4 72 2.6 NNW 4 7 2 4 1023.2 1023.2 0.0
 
Date/Time
EST
Temp
°C
App
Temp
°C
Dew
Point
Rel
Hum
%
Delta-T
°C
Wind Press
QNH
hPa
Press
MSL
hPa
Rain
since 9 am
mm
Dir
 
Spd
km/h
Gust
km/h
Spd
kts
Gust
kts
25/11:30pm 16.7 15.1 10.3 66 3.4 N 9 17 5 9 1023.2 - 0.0
25/11:00pm 15.8 15.3 10.6 71 2.7 NNW 4 7 2 4 1023.4 1023.4 0.0
25/10:30pm 16.5 15.4 10.6 68 3.1 N 7 13 4 7 1023.3 - 0.0
25/10:00pm 16.7 15.0 11.2 70 2.9 N 11 17 6 9 1023.5 1023.5 0.0
25/09:30pm 15.4 14.9 10.8 74 2.4 NW 4 11 2 6 1023.5 - 0.0
25/09:00pm 15.5 15.0 10.7 73 2.5 NNW 4 7 2 4 1023.3 1023.3 0.0
25/08:30pm 16.2 15.3 10.7 70 2.9 N 6 9 3 5 1023.1 - 0.0
25/08:00pm 17.1 16.0 10.7 66 3.4 NNW 7 15 4 8 1023.1 1023.1 0.0
25/07:30pm 15.1 14.9 10.5 74 2.4 N 2 7 1 4 1022.5 - 0.0
25/07:00pm 16.2 15.3 10.5 69 3.0 N 6 13 3 7 1022.7 1022.7 0.0
25/06:30pm 16.8 14.9 10.4 66 3.4 N 11 19 6 10 1022.5 - 0.0
25/06:00pm 16.2 15.1 10.7 70 2.9 N 7 11 4 6 1022.3 1022.3 0.0
25/05:30pm 17.1 16.1 10.2 64 3.7 NNW 6 13 3 7 1022.5 - 0.0
25/05:00pm 17.3 15.8 10.4 64 3.7 N 9 15 5 8 1022.3 1022.3 0.0
25/04:30pm 17.5 15.6 10.4 63 3.8 NNW 11 19 6 10 1022.0 - 0.0

Other Formats:

Comma delimited format used in spreadsheet applications
http://www.bom.gov.au/fwo/IDN60801/IDN60801.95767.axf

JavaScript Object Notation format (JSON) in row-major order
http://www.bom.gov.au/fwo/IDN60801/IDN60801.95767.json